createdAt,value
2019-05-01T00:00:50.372Z,7.30
2019-05-01T00:03:21.941Z,7.30
2019-05-01T00:05:53.287Z,7.30
2019-05-01T00:08:23.812Z,7.30
2019-05-01T00:10:55.649Z,7.30
2019-05-01T00:13:26.071Z,7.40
2019-05-01T00:15:56.084Z,7.40
2019-05-01T00:18:26.492Z,7.30
2019-05-01T00:20:55.941Z,7.40
2019-05-01T00:23:25.388Z,7.40
2019-05-01T00:25:54.940Z,7.40
2019-05-01T00:28:24.874Z,7.30
2019-05-01T00:30:55.396Z,7.20
2019-05-01T00:33:25.037Z,7.30
2019-05-01T00:35:54.462Z,7.20
2019-05-01T00:38:23.976Z,6.80
2019-05-01T00:40:53.721Z,6.60
2019-05-01T00:43:23.916Z,6.30
2019-05-01T00:45:53.300Z,6.20
2019-05-01T00:48:22.835Z,6.00
2019-05-01T00:50:52.557Z,5.80
2019-05-01T00:53:22.164Z,5.90
2019-05-01T00:55:53.412Z,6.20
2019-05-01T00:58:24.533Z,6.10
2019-05-01T01:00:55.678Z,6.10
2019-05-01T01:03:25.321Z,6.00
2019-05-01T01:05:55.946Z,6.00
2019-05-01T01:08:25.542Z,6.20
2019-05-01T01:10:55.143Z,6.20
2019-05-01T01:13:24.659Z,6.30
2019-05-01T01:15:54.464Z,6.40
2019-05-01T01:18:24.167Z,6.30
2019-05-01T01:20:53.703Z,6.20
2019-05-01T01:23:23.741Z,6.20
2019-05-01T01:25:53.404Z,6.00
2019-05-01T01:28:23.672Z,5.70
2019-05-01T01:30:56.415Z,5.60
2019-05-01T01:33:24.449Z,5.20
2019-05-01T01:35:53.915Z,5.20
2019-05-01T01:38:23.483Z,5.20
2019-05-01T01:40:53.290Z,5.30
2019-05-01T01:43:24.588Z,5.40
2019-05-01T01:45:56.046Z,5.60
2019-05-01T01:48:25.947Z,5.70
2019-05-01T01:50:55.808Z,5.70
2019-05-01T01:53:25.697Z,5.70
2019-05-01T01:55:55.466Z,5.80
2019-05-01T01:58:25.998Z,5.70
2019-05-01T02:01:08.881Z,5.80
2019-05-01T02:03:30.298Z,5.80
2019-05-01T02:06:00.015Z,5.70
2019-05-01T02:08:29.624Z,5.40
2019-05-01T02:10:59.577Z,5.40
2019-05-01T02:13:29.258Z,5.40
2019-05-01T02:15:58.752Z,5.30
2019-05-01T02:18:28.357Z,5.20
2019-05-01T02:20:58.051Z,5.00
2019-05-01T02:23:27.599Z,4.90
2019-05-01T02:25:57.063Z,4.80
2019-05-01T02:28:28.889Z,4.90
2019-05-01T02:31:01.649Z,4.90
2019-05-01T02:33:31.193Z,5.00
2019-05-01T02:36:00.940Z,5.20
2019-05-01T02:38:30.961Z,5.30
2019-05-01T02:41:01.616Z,5.40
2019-05-01T02:43:34.360Z,5.30
2019-05-01T02:46:05.867Z,5.30
2019-05-01T02:48:38.146Z,5.40
2019-05-01T02:51:08.610Z,5.30
2019-05-01T02:53:41.162Z,5.20
2019-05-01T02:56:15.285Z,5.30
2019-05-01T02:58:46.127Z,5.30
2019-05-01T03:01:15.678Z,5.30
2019-05-01T03:03:46.471Z,5.30
2019-05-01T03:06:16.680Z,5.20
2019-05-01T03:08:46.823Z,5.00
2019-05-01T03:11:16.547Z,4.70
2019-05-01T03:13:49.600Z,4.90
2019-05-01T03:16:20.046Z,5.00
2019-05-01T03:18:51.378Z,4.90
2019-05-01T03:21:23.206Z,5.00
2019-05-01T03:23:54.529Z,5.00
2019-05-01T03:26:24.182Z,5.20
2019-05-01T03:28:54.303Z,5.40
2019-05-01T03:31:23.961Z,5.50
2019-05-01T03:33:53.618Z,5.60
2019-05-01T03:36:23.257Z,5.70
2019-05-01T03:38:52.782Z,5.70
2019-05-01T03:41:22.406Z,5.70
2019-05-01T03:43:51.854Z,5.80
2019-05-01T03:46:21.790Z,5.90
2019-05-01T03:48:51.662Z,6.00
2019-05-01T03:51:21.342Z,6.10
2019-05-01T03:53:50.923Z,6.20
2019-05-01T03:56:20.728Z,6.30
2019-05-01T03:58:50.926Z,6.30
2019-05-01T04:01:22.389Z,6.30
2019-05-01T04:03:53.444Z,6.30
2019-05-01T04:06:23.514Z,6.40
2019-05-01T04:08:53.653Z,6.40
2019-05-01T04:11:23.878Z,6.50
2019-05-01T04:13:53.420Z,6.50
2019-05-01T04:16:23.405Z,6.50
2019-05-01T04:18:53.318Z,6.50
2019-05-01T04:21:24.651Z,6.60
2019-05-01T04:23:54.207Z,6.60
2019-05-01T04:26:23.586Z,6.70
2019-05-01T04:28:55.353Z,6.70
2019-05-01T04:31:26.509Z,6.80
2019-05-01T04:33:58.109Z,6.80
2019-05-01T04:36:29.361Z,6.80
2019-05-01T04:38:59.960Z,6.90
2019-05-01T04:41:29.854Z,6.90
2019-05-01T04:43:59.820Z,7.10
2019-05-01T04:46:29.374Z,7.20
2019-05-01T04:48:59.649Z,7.30
2019-05-01T04:51:29.899Z,7.30
2019-05-01T04:54:00.718Z,7.30
2019-05-01T04:56:30.320Z,7.30
2019-05-01T04:59:00.232Z,7.40
2019-05-01T05:01:31.582Z,7.50
2019-05-01T05:04:01.126Z,7.50
2019-05-01T05:06:30.795Z,7.50
2019-05-01T05:09:00.778Z,7.70
2019-05-01T05:11:33.618Z,7.60
2019-05-01T05:14:04.735Z,7.70
2019-05-01T05:16:36.185Z,7.60
2019-05-01T05:19:05.696Z,7.80
2019-05-01T05:21:35.186Z,7.80
2019-05-01T05:24:04.712Z,7.90
2019-05-01T05:26:34.758Z,7.90
2019-05-01T05:29:04.986Z,7.90
2019-05-01T05:31:35.858Z,7.90
2019-05-01T05:34:06.702Z,7.90
2019-05-01T05:36:38.973Z,8.00
2019-05-01T05:39:10.226Z,8.10
2019-05-01T05:41:40.161Z,8.00
2019-05-01T05:44:10.578Z,8.00
2019-05-01T05:46:40.076Z,8.00
2019-05-01T05:49:09.690Z,8.00
2019-05-01T05:51:43.549Z,8.10
2019-05-01T05:54:17.357Z,8.00
2019-05-01T05:56:49.991Z,8.00
2019-05-01T05:59:22.748Z,8.00
2019-05-01T06:01:55.970Z,7.90
2019-05-01T06:04:27.492Z,8.00
2019-05-01T06:07:02.214Z,8.10
2019-05-01T06:09:35.155Z,8.10
2019-05-01T06:12:09.050Z,8.30
2019-05-01T06:14:41.398Z,8.30
2019-05-01T06:17:12.532Z,8.40
2019-05-01T06:19:45.910Z,8.40
2019-05-01T06:22:14.969Z,8.50
2019-05-01T06:24:45.673Z,8.40
2019-05-01T06:27:18.529Z,8.30
2019-05-01T06:29:48.665Z,8.20
2019-05-01T06:32:18.124Z,8.30
2019-05-01T06:34:47.656Z,8.40
2019-05-01T06:37:20.945Z,8.50
2019-05-01T06:39:49.838Z,8.70
2019-05-01T06:42:21.030Z,8.80
2019-05-01T06:44:52.429Z,8.90
2019-05-01T06:47:24.079Z,8.90
2019-05-01T06:49:56.329Z,8.80
2019-05-01T06:52:29.318Z,9.00
2019-05-01T06:54:58.903Z,9.10
2019-05-01T06:57:29.812Z,9.20
2019-05-01T07:00:03.299Z,9.20
2019-05-01T07:02:34.938Z,9.30
2019-05-01T07:05:03.987Z,9.40
2019-05-01T07:07:33.745Z,9.50
2019-05-01T07:10:05.824Z,9.60
2019-05-01T07:12:36.001Z,9.50
2019-05-01T07:15:06.889Z,9.70
2019-05-01T07:17:37.592Z,10.00
2019-05-01T07:20:11.783Z,10.30
2019-05-01T07:22:42.333Z,10.40
2019-05-01T07:25:12.257Z,10.60
2019-05-01T07:27:41.749Z,10.80
2019-05-01T07:30:15.928Z,10.90
2019-05-01T07:32:44.752Z,11.00
2019-05-01T07:35:15.291Z,11.10
2019-05-01T07:37:45.009Z,11.20
2019-05-01T07:40:14.951Z,11.10
2019-05-01T07:42:48.174Z,10.80
2019-05-01T07:45:19.136Z,11.00
2019-05-01T07:47:51.208Z,10.90
2019-05-01T07:50:32.640Z,11.00
2019-05-01T07:53:04.026Z,11.00
2019-05-01T07:55:35.295Z,11.20
2019-05-01T07:58:10.522Z,11.30
2019-05-01T08:00:42.933Z,11.50
2019-05-01T08:03:13.543Z,11.60
2019-05-01T08:05:46.825Z,11.80
2019-05-01T08:08:16.450Z,12.10
2019-05-01T08:10:45.827Z,12.30
2019-05-01T08:13:15.227Z,12.40
2019-05-01T08:15:45.806Z,12.40
2019-05-01T08:18:16.905Z,12.40
2019-05-01T08:20:50.427Z,12.40
2019-05-01T08:23:19.156Z,12.50
2019-05-01T08:25:48.606Z,12.50
2019-05-01T08:28:19.595Z,12.60
2019-05-01T08:30:52.721Z,12.80
2019-05-01T08:33:21.523Z,12.80
2019-05-01T08:35:51.034Z,12.90
2019-05-01T08:38:20.460Z,13.00
2019-05-01T08:40:50.738Z,13.10
2019-05-01T08:43:22.187Z,13.30
2019-05-01T08:45:53.302Z,13.50
2019-05-01T08:48:24.371Z,13.60
2019-05-01T08:50:54.526Z,13.80
2019-05-01T08:53:24.930Z,13.60
2019-05-01T08:55:54.447Z,13.60
2019-05-01T08:58:23.901Z,13.50
2019-05-01T09:00:53.531Z,13.80
2019-05-01T09:03:22.976Z,14.00
2019-05-01T09:05:57.485Z,14.00
2019-05-01T09:08:26.949Z,14.20
2019-05-01T09:11:00.236Z,14.20
2019-05-01T09:13:26.971Z,14.30
2019-05-01T09:15:56.417Z,14.30
2019-05-01T09:18:26.113Z,14.30
2019-05-01T09:20:57.366Z,14.40
2019-05-01T09:23:26.852Z,14.40
2019-05-01T09:25:58.011Z,14.40
2019-05-01T09:28:29.171Z,14.50
2019-05-01T09:31:02.291Z,14.70
2019-05-01T09:33:32.065Z,15.00
2019-05-01T09:36:01.866Z,14.90
2019-05-01T09:38:31.327Z,15.00
2019-05-01T09:41:00.849Z,14.90
2019-05-01T09:43:30.911Z,15.00
2019-05-01T09:46:01.814Z,15.10
2019-05-01T09:48:31.515Z,15.10
2019-05-01T09:51:05.412Z,15.30
2019-05-01T09:53:35.593Z,15.30
2019-05-01T09:56:07.771Z,15.20
2019-05-01T09:58:38.041Z,15.00
2019-05-01T10:01:07.589Z,15.10
2019-05-01T10:03:37.166Z,15.20
2019-05-01T10:06:06.872Z,15.10
2019-05-01T10:08:40.010Z,15.20
2019-05-01T10:11:07.608Z,15.30
2019-05-01T10:13:37.316Z,15.40
2019-05-01T10:16:06.967Z,15.50
2019-05-01T10:18:36.487Z,15.70
2019-05-01T10:21:06.093Z,15.80
2019-05-01T10:23:35.593Z,15.70
2019-05-01T10:26:06.807Z,15.80
2019-05-01T10:28:37.944Z,15.90
2019-05-01T10:31:13.192Z,15.90
2019-05-01T10:33:44.426Z,15.60
2019-05-01T10:36:18.794Z,15.80
2019-05-01T10:38:48.149Z,15.60
2019-05-01T10:41:17.760Z,15.40
2019-05-01T10:43:47.243Z,15.40
2019-05-01T10:46:16.687Z,15.30
2019-05-01T10:48:46.268Z,15.50
2019-05-01T10:51:15.667Z,15.90
2019-05-01T10:53:45.124Z,16.10
2019-05-01T10:56:14.561Z,16.10
2019-05-01T10:58:44.090Z,16.10
2019-05-01T11:01:15.222Z,15.70
2019-05-01T11:03:44.709Z,15.40
2019-05-01T11:06:14.335Z,15.30
2019-05-01T11:08:43.946Z,15.70
2019-05-01T11:11:13.360Z,16.10
2019-05-01T11:13:42.766Z,16.20
2019-05-01T11:16:12.183Z,16.00
2019-05-01T11:18:41.754Z,16.10
2019-05-01T11:21:11.205Z,16.20
2019-05-01T11:23:40.708Z,16.50
2019-05-01T11:26:10.310Z,16.30
2019-05-01T11:28:40.151Z,16.00
2019-05-01T11:31:11.399Z,15.80
2019-05-01T11:33:42.615Z,15.90
2019-05-01T11:36:13.872Z,16.20
2019-05-01T11:38:44.999Z,16.30
2019-05-01T11:41:16.193Z,16.10
2019-05-01T11:43:45.812Z,15.90
2019-05-01T11:46:15.485Z,15.90
2019-05-01T11:48:45.023Z,16.20
2019-05-01T11:51:14.434Z,16.40
2019-05-01T11:53:43.962Z,16.60
2019-05-01T11:56:13.642Z,16.70
2019-05-01T11:58:43.090Z,16.30
2019-05-01T12:01:14.206Z,16.00
2019-05-01T12:03:43.675Z,16.00
2019-05-01T12:06:22.631Z,16.00
2019-05-01T12:08:44.376Z,16.10
2019-05-01T12:11:15.773Z,16.20
2019-05-01T12:13:45.220Z,16.40
2019-05-01T12:16:16.339Z,16.40
2019-05-01T12:18:45.826Z,16.30
2019-05-01T12:21:15.225Z,16.20
2019-05-01T12:23:46.062Z,16.20
2019-05-01T12:26:15.462Z,16.50
2019-05-01T12:28:44.879Z,16.60
2019-05-01T12:31:14.224Z,16.70
2019-05-01T12:33:44.592Z,16.60
2019-05-01T12:36:14.097Z,16.50
2019-05-01T12:38:43.500Z,16.60
2019-05-01T12:41:14.549Z,16.70
2019-05-01T12:43:45.205Z,16.80
2019-05-01T12:46:16.295Z,17.00
2019-05-01T12:48:45.716Z,17.00
2019-05-01T12:51:15.218Z,16.70
2019-05-01T12:53:47.950Z,16.30
2019-05-01T12:56:20.069Z,16.20
2019-05-01T12:58:50.391Z,15.80
2019-05-01T13:01:19.895Z,15.80
2019-05-01T13:03:49.266Z,16.30
2019-05-01T13:06:48.888Z,16.50
2019-05-01T13:09:09.347Z,16.50
2019-05-01T13:11:39.109Z,16.70
2019-05-01T13:14:08.732Z,16.70
2019-05-01T13:16:38.339Z,16.90
2019-05-01T13:19:07.929Z,16.90
2019-05-01T13:21:37.332Z,17.00
2019-05-01T13:24:06.946Z,17.10
2019-05-01T13:26:38.200Z,17.40
2019-05-01T13:29:09.615Z,17.20
2019-05-01T13:31:41.911Z,17.30
2019-05-01T13:34:12.312Z,17.30
2019-05-01T13:36:41.854Z,17.10
2019-05-01T13:39:12.465Z,16.90
2019-05-01T13:41:41.978Z,16.80
2019-05-01T13:44:11.517Z,16.70
2019-05-01T13:46:40.994Z,16.50
2019-05-01T13:49:10.599Z,16.40
2019-05-01T13:51:40.080Z,16.10
2019-05-01T13:54:10.070Z,16.10
2019-05-01T13:56:39.539Z,16.20
2019-05-01T13:59:11.727Z,16.10
2019-05-01T14:01:41.183Z,16.00
2019-05-01T14:04:13.487Z,15.90
2019-05-01T14:06:43.175Z,15.90
2019-05-01T14:09:14.393Z,16.00
2019-05-01T14:11:44.531Z,15.90
2019-05-01T14:14:14.093Z,15.90
2019-05-01T14:16:43.607Z,15.80
2019-05-01T14:19:13.457Z,15.60
2019-05-01T14:21:44.606Z,15.30
2019-05-01T14:24:15.734Z,14.80
2019-05-01T14:26:45.364Z,14.40
2019-05-01T14:29:14.831Z,14.20
2019-05-01T14:31:44.235Z,14.10
2019-05-01T14:34:13.658Z,14.10
2019-05-01T14:36:43.126Z,14.10
2019-05-01T14:39:12.639Z,14.00
2019-05-01T14:41:42.086Z,14.00
2019-05-01T14:44:11.515Z,14.10
2019-05-01T14:46:41.185Z,14.10
2019-05-01T14:49:10.793Z,14.10
2019-05-01T14:51:40.455Z,14.10
2019-05-01T14:54:09.932Z,14.10
2019-05-01T14:56:39.331Z,14.00
2019-05-01T14:59:08.802Z,14.00
2019-05-01T15:01:38.268Z,14.00
2019-05-01T15:04:07.816Z,14.00
2019-05-01T15:06:37.349Z,14.00
2019-05-01T15:09:08.495Z,14.00
2019-05-01T15:11:39.316Z,14.10
2019-05-01T15:14:10.550Z,14.00
2019-05-01T15:16:41.581Z,14.10
2019-05-01T15:19:12.612Z,14.10
2019-05-01T15:21:42.145Z,14.10
2019-05-01T15:24:11.701Z,14.20
2019-05-01T15:26:41.221Z,14.20
2019-05-01T15:29:11.071Z,14.30
2019-05-01T15:31:40.797Z,14.40
2019-05-01T15:34:10.482Z,14.40
2019-05-01T15:36:39.889Z,14.40
2019-05-01T15:39:11.579Z,14.40
2019-05-01T15:41:42.577Z,14.30
2019-05-01T15:44:13.599Z,14.20
2019-05-01T15:46:42.989Z,14.10
2019-05-01T15:49:12.405Z,14.10
2019-05-01T15:51:41.806Z,14.10
2019-05-01T15:54:11.207Z,14.20
2019-05-01T15:56:40.610Z,14.20
2019-05-01T15:59:10.013Z,14.30
2019-05-01T16:01:39.399Z,14.20
2019-05-01T16:04:08.733Z,14.30
2019-05-01T16:06:38.184Z,14.30
2019-05-01T16:09:08.256Z,14.40
2019-05-01T16:11:39.404Z,14.50
2019-05-01T16:14:09.002Z,14.50
2019-05-01T16:16:38.585Z,14.60
2019-05-01T16:19:09.921Z,14.60
2019-05-01T16:21:46.744Z,14.60
2019-05-01T16:24:16.837Z,14.70
2019-05-01T16:26:46.215Z,14.70
2019-05-01T16:29:15.639Z,14.70
2019-05-01T16:31:44.997Z,14.70
2019-05-01T16:34:14.416Z,14.60
2019-05-01T16:36:43.950Z,14.60
2019-05-01T16:39:13.369Z,14.70
2019-05-01T16:41:44.394Z,14.80
2019-05-01T16:44:13.864Z,14.80
2019-05-01T16:46:43.299Z,14.80
2019-05-01T16:49:12.655Z,14.70
2019-05-01T16:51:44.208Z,14.60
2019-05-01T16:54:13.633Z,14.50
2019-05-01T16:56:43.162Z,14.50
2019-05-01T16:59:12.534Z,14.50
2019-05-01T17:01:43.709Z,14.50
2019-05-01T17:04:14.957Z,14.60
2019-05-01T17:06:47.082Z,14.50
2019-05-01T17:09:18.363Z,14.40
2019-05-01T17:11:47.767Z,14.30
2019-05-01T17:14:18.535Z,14.30
2019-05-01T17:16:48.105Z,14.20
2019-05-01T17:19:17.453Z,14.10
2019-05-01T17:21:46.912Z,14.10
2019-05-01T17:24:16.440Z,14.10
2019-05-01T17:26:46.102Z,14.10
2019-05-01T17:29:15.613Z,14.10
2019-05-01T17:31:45.168Z,13.90
2019-05-01T17:34:14.714Z,13.60
2019-05-01T17:36:44.625Z,13.50
2019-05-01T17:39:14.633Z,13.40
2019-05-01T17:41:44.217Z,13.50
2019-05-01T17:44:13.729Z,13.40
2019-05-01T17:46:46.907Z,13.40
2019-05-01T17:49:16.287Z,13.40
2019-05-01T17:51:46.428Z,13.30
2019-05-01T17:54:17.245Z,13.10
2019-05-01T17:56:48.517Z,13.10
2019-05-01T17:59:17.753Z,13.00
2019-05-01T18:01:48.792Z,12.90
2019-05-01T18:04:19.978Z,12.80
2019-05-01T18:06:50.827Z,12.60
2019-05-01T18:09:20.242Z,12.50
2019-05-01T18:11:52.137Z,12.50
2019-05-01T18:14:22.081Z,12.50
2019-05-01T18:16:51.801Z,12.40
2019-05-01T18:19:21.329Z,12.40
2019-05-01T18:21:53.610Z,12.40
2019-05-01T18:24:24.807Z,12.40
2019-05-01T18:26:55.937Z,12.40
2019-05-01T18:29:27.092Z,12.30
2019-05-01T18:31:56.702Z,12.40
2019-05-01T18:34:26.235Z,12.30
2019-05-01T18:36:59.878Z,12.20
2019-05-01T18:39:31.825Z,12.20
2019-05-01T18:42:02.945Z,12.10
2019-05-01T18:44:32.487Z,11.90
2019-05-01T18:47:02.118Z,11.80
2019-05-01T18:49:31.727Z,11.80
2019-05-01T18:52:01.154Z,11.70
2019-05-01T18:54:35.012Z,11.60
2019-05-01T18:57:02.169Z,11.60
2019-05-01T18:59:31.689Z,11.60
2019-05-01T19:02:01.497Z,11.50
2019-05-01T19:04:32.562Z,11.50
2019-05-01T19:07:02.081Z,11.50
2019-05-01T19:09:32.091Z,11.40
2019-05-01T19:12:01.619Z,11.40
2019-05-01T19:14:31.603Z,11.30
2019-05-01T19:17:01.246Z,11.30
2019-05-01T19:19:30.861Z,11.20
2019-05-01T19:22:00.272Z,11.10
2019-05-01T19:24:32.422Z,11.20
2019-05-01T19:27:01.037Z,11.20
2019-05-01T19:29:32.174Z,11.30
2019-05-01T19:32:02.018Z,11.30
2019-05-01T19:34:32.513Z,11.30
2019-05-01T19:37:01.960Z,11.30
2019-05-01T19:39:42.857Z,11.30
2019-05-01T19:42:02.624Z,11.20
2019-05-01T19:44:32.081Z,11.20
2019-05-01T19:47:01.873Z,10.90
2019-05-01T19:49:31.527Z,10.90
2019-05-01T19:52:02.079Z,10.90
2019-05-01T19:54:31.749Z,10.80
2019-05-01T19:57:01.247Z,10.60
2019-05-01T19:59:31.798Z,10.50
2019-05-01T20:02:01.210Z,10.50
2019-05-01T20:04:30.698Z,10.50
2019-05-01T20:07:00.188Z,10.40
2019-05-01T20:09:30.186Z,10.30
2019-05-01T20:11:59.676Z,10.30
2019-05-01T20:14:29.196Z,10.30
2019-05-01T20:16:58.852Z,10.20
2019-05-01T20:19:28.443Z,10.20
2019-05-01T20:21:58.109Z,10.20
2019-05-01T20:24:27.679Z,10.10
2019-05-01T20:26:57.207Z,10.10
2019-05-01T20:29:27.529Z,10.10
2019-05-01T20:31:57.289Z,10.10
2019-05-01T20:34:26.738Z,10.10
2019-05-01T20:36:56.202Z,10.20
2019-05-01T20:39:25.713Z,10.20
2019-05-01T20:41:55.343Z,10.10
2019-05-01T20:44:25.855Z,10.20
2019-05-01T20:46:58.479Z,10.20
2019-05-01T20:49:26.639Z,10.10
2019-05-01T20:51:56.513Z,10.10
2019-05-01T20:54:25.958Z,10.00
2019-05-01T20:56:57.157Z,9.90
2019-05-01T20:59:26.719Z,9.90
2019-05-01T21:01:59.686Z,9.90
2019-05-01T21:04:29.104Z,10.00
2019-05-01T21:07:00.127Z,9.90
2019-05-01T21:09:31.162Z,9.90
2019-05-01T21:12:05.369Z,9.80
2019-05-01T21:14:31.878Z,9.80
2019-05-01T21:17:01.479Z,9.70
2019-05-01T21:19:32.933Z,9.70
2019-05-01T21:22:03.917Z,9.70
2019-05-01T21:24:34.073Z,9.70
2019-05-01T21:27:03.677Z,9.70
2019-05-01T21:29:34.302Z,9.70
2019-05-01T21:32:04.089Z,9.70
2019-05-01T21:34:33.551Z,9.60
2019-05-01T21:37:03.037Z,9.70
2019-05-01T21:39:33.466Z,9.60
2019-05-01T21:42:06.621Z,9.70
2019-05-01T21:44:34.211Z,9.70
2019-05-01T21:47:04.143Z,9.70
2019-05-01T21:49:33.854Z,9.70
2019-05-01T21:52:04.081Z,9.70
2019-05-01T21:54:34.390Z,9.60
2019-05-01T21:57:03.998Z,9.60
2019-05-01T21:59:35.201Z,9.60
2019-05-01T22:02:09.652Z,9.50
2019-05-01T22:04:36.345Z,9.60
2019-05-01T22:07:07.853Z,9.60
2019-05-01T22:09:38.281Z,9.60
2019-05-01T22:12:08.186Z,9.50
2019-05-01T22:14:41.178Z,9.50
2019-05-01T22:17:12.323Z,9.50
2019-05-01T22:19:41.933Z,9.40
2019-05-01T22:22:11.169Z,9.40
2019-05-01T22:24:42.300Z,9.30
2019-05-01T22:27:13.466Z,9.20
2019-05-01T22:29:44.761Z,9.20
2019-05-01T22:32:15.877Z,9.20
2019-05-01T22:34:47.150Z,9.10
2019-05-01T22:37:16.706Z,9.10
2019-05-01T22:39:47.820Z,9.00
2019-05-01T22:42:17.407Z,9.00
2019-05-01T22:44:47.113Z,9.00
2019-05-01T22:47:16.717Z,8.90
2019-05-01T22:49:46.328Z,8.80
2019-05-01T22:52:15.717Z,8.90
2019-05-01T22:54:48.873Z,8.80
2019-05-01T22:57:19.240Z,8.80
2019-05-01T22:59:49.261Z,8.90
2019-05-01T23:02:24.143Z,8.80
2019-05-01T23:04:52.127Z,8.80
2019-05-01T23:07:21.688Z,8.90
2019-05-01T23:09:51.379Z,8.80
2019-05-01T23:12:21.024Z,8.80
2019-05-01T23:14:50.627Z,8.80
2019-05-01T23:17:21.653Z,8.70
2019-05-01T23:19:51.062Z,8.60
2019-05-01T23:22:21.366Z,8.60
2019-05-01T23:24:50.863Z,8.60
2019-05-01T23:27:24.429Z,8.50
2019-05-01T23:29:51.689Z,8.40
2019-05-01T23:32:21.607Z,8.40
2019-05-01T23:34:51.343Z,8.40
2019-05-01T23:37:21.046Z,8.30
2019-05-01T23:39:50.577Z,8.40
2019-05-01T23:42:20.074Z,8.30
2019-05-01T23:44:49.562Z,8.20
2019-05-01T23:47:19.268Z,8.20
2019-05-01T23:49:52.599Z,8.20
2019-05-01T23:52:20.070Z,8.20
2019-05-01T23:54:50.599Z,8.30
2019-05-01T23:57:20.095Z,8.30
2019-05-01T23:59:49.656Z,8.30
